Weather at North Las Vegas Airport

Public forecast

Using degrees Fahrenheit for public forecast. Weather courtesy of forecast.io.

Current aviation weather report (METAR) for North Las Vegas Airport

Retrieved 2020/09/19 01:53 UTC (47 minutes ago):

KVGT 190153Z 25007KT 10SM CLR 37/M01 A2980 RMK AO2 SLP081 T03671011

Aviation forecast (TAF) for North Las Vegas Airport

Retrieved 2020-09-19 00:22 UTC (2 hours ago):

TAF KVGT 182320Z 1900/1924 19013G22KT P6SM SCT130 OVC250 FM190200 22011KT P6SM SCT130 SCT250 FM190600 22011KT P6SM FEW130 FM191700 21012G20KT P6SM SKC